createdAt,value
2023-03-06T00:02:13.296Z,5.44
2023-03-06T00:05:34.935Z,5.61
2023-03-06T00:08:56.572Z,5.66
2023-03-06T00:12:18.172Z,5.66
2023-03-06T00:15:42.430Z,5.54
2023-03-06T00:19:04.014Z,5.61
2023-03-06T00:22:26.566Z,5.69
2023-03-06T00:25:48.154Z,5.63
2023-03-06T00:29:09.770Z,5.51
2023-03-06T00:32:31.429Z,5.48
2023-03-06T00:35:55.459Z,5.58
2023-03-06T00:39:19.877Z,5.68
2023-03-06T00:42:41.640Z,5.68
2023-03-06T00:46:03.858Z,5.69
2023-03-06T00:49:25.489Z,5.78
2023-03-06T00:52:47.154Z,5.68
2023-03-06T00:56:09.778Z,5.65
2023-03-06T00:59:33.832Z,5.82
2023-03-06T01:02:56.123Z,5.63
2023-03-06T01:06:17.725Z,5.58
2023-03-06T01:09:44.546Z,5.58
2023-03-06T01:13:09.892Z,5.58
2023-03-06T01:16:34.132Z,5.58
2023-03-06T01:19:55.751Z,5.62
2023-03-06T01:23:20.401Z,5.62
2023-03-06T01:26:44.317Z,5.73
2023-03-06T01:30:06.598Z,5.68
2023-03-06T01:33:28.181Z,5.72
2023-03-06T01:36:49.879Z,5.72
2023-03-06T01:40:12.829Z,5.76
2023-03-06T01:43:36.664Z,5.63
2023-03-06T01:47:02.371Z,5.83
2023-03-06T01:50:24.200Z,5.92
2023-03-06T01:53:46.871Z,5.72
2023-03-06T01:57:43.364Z,5.75
2023-03-06T02:01:08.190Z,5.78
2023-03-06T02:04:32.287Z,5.85
2023-03-06T02:07:57.504Z,5.76
2023-03-06T02:11:22.445Z,5.76
2023-03-06T02:14:44.682Z,5.59
2023-03-06T02:18:08.495Z,5.63
2023-03-06T02:21:35.624Z,5.58
2023-03-06T02:25:23.293Z,5.59
2023-03-06T02:28:47.316Z,5.65
2023-03-06T02:32:09.016Z,5.52
2023-03-06T02:35:33.178Z,5.51
2023-03-06T02:38:57.987Z,5.55
2023-03-06T02:42:31.406Z,5.61
2023-03-06T02:45:55.540Z,5.63
2023-03-06T02:49:19.402Z,5.51
2023-03-06T02:52:41.051Z,5.65
2023-03-06T02:56:05.394Z,5.85
2023-03-06T02:59:30.023Z,5.78
2023-03-06T03:02:54.311Z,5.71
2023-03-06T03:06:16.306Z,5.83
2023-03-06T03:09:37.897Z,5.81
2023-03-06T03:12:59.577Z,5.89
2023-03-06T03:16:23.327Z,5.85
2023-03-06T03:19:47.398Z,5.83
2023-03-06T03:23:11.400Z,5.81
2023-03-06T03:26:35.297Z,5.82
2023-03-06T03:30:00.231Z,6.06
2023-03-06T03:33:24.319Z,6.00
2023-03-06T03:36:48.122Z,6.16
2023-03-06T03:40:12.473Z,6.20
2023-03-06T03:43:34.247Z,6.16
2023-03-06T03:46:58.901Z,5.90
2023-03-06T03:50:22.801Z,5.96
2023-03-06T03:53:45.031Z,5.98
2023-03-06T03:57:06.701Z,6.13
2023-03-06T04:00:28.958Z,5.98
2023-03-06T04:03:53.270Z,5.93
2023-03-06T04:07:17.392Z,5.96
2023-03-06T04:10:41.155Z,5.98
2023-03-06T04:14:03.485Z,6.02
2023-03-06T04:17:25.712Z,6.10
2023-03-06T04:20:47.957Z,6.03
2023-03-06T04:24:09.579Z,5.95
2023-03-06T04:27:34.191Z,5.96
2023-03-06T04:30:55.785Z,6.17
2023-03-06T04:34:17.355Z,6.34
2023-03-06T04:37:38.946Z,6.09
2023-03-06T04:41:00.560Z,6.13
2023-03-06T04:44:24.798Z,6.03
2023-03-06T04:47:49.103Z,6.14
2023-03-06T04:51:15.463Z,5.89
2023-03-06T04:54:37.073Z,6.05
2023-03-06T04:57:59.055Z,5.92
2023-03-06T05:01:23.432Z,5.96
2023-03-06T05:04:47.272Z,5.90
2023-03-06T05:08:13.547Z,5.83
2023-03-06T05:11:35.094Z,5.75
2023-03-06T05:14:58.155Z,5.75
2023-03-06T05:18:20.613Z,5.71
2023-03-06T05:21:44.386Z,5.71
2023-03-06T05:25:06.897Z,5.75
2023-03-06T05:28:28.844Z,5.68
2023-03-06T05:31:50.490Z,5.66
2023-03-06T05:35:17.784Z,5.50
2023-03-06T05:38:39.347Z,5.43
2023-03-06T05:42:00.974Z,5.38
2023-03-06T05:45:22.583Z,5.38
2023-03-06T05:48:46.920Z,5.35
2023-03-06T05:52:09.497Z,5.35
2023-03-06T05:55:31.170Z,5.37
2023-03-06T05:58:52.693Z,5.31
2023-03-06T06:02:15.222Z,5.38
2023-03-06T06:05:39.777Z,5.47
2023-03-06T06:09:01.378Z,5.56
2023-03-06T06:12:23.356Z,5.51
2023-03-06T06:15:44.995Z,5.48
2023-03-06T06:19:07.089Z,5.35
2023-03-06T06:22:34.050Z,5.40
2023-03-06T06:26:00.146Z,5.45
2023-03-06T06:29:22.562Z,5.33
2023-03-06T06:32:46.471Z,5.48
2023-03-06T06:36:20.263Z,5.45
2023-03-06T06:39:44.095Z,5.37
2023-03-06T06:43:05.700Z,5.65
2023-03-06T06:47:10.769Z,6.10
2023-03-06T06:50:13.540Z,6.50
2023-03-06T06:53:37.818Z,6.67
2023-03-06T06:57:02.030Z,6.92
2023-03-06T07:00:24.381Z,6.75
2023-03-06T07:03:46.723Z,6.51
2023-03-06T07:07:08.291Z,6.24
2023-03-06T07:10:32.584Z,6.10
2023-03-06T07:13:56.761Z,5.86
2023-03-06T07:17:23.337Z,5.76
2023-03-06T07:20:47.170Z,5.76
2023-03-06T07:24:09.030Z,5.65
2023-03-06T07:27:30.646Z,5.55
2023-03-06T07:30:52.401Z,5.50
2023-03-06T07:34:15.476Z,5.45
2023-03-06T07:37:41.632Z,5.44
2023-03-06T07:41:05.688Z,5.45
2023-03-06T07:44:27.451Z,5.45
2023-03-06T07:47:53.265Z,5.44
2023-03-06T07:51:22.147Z,5.54
2023-03-06T07:54:46.129Z,5.47
2023-03-06T07:58:12.979Z,5.56
2023-03-06T08:01:36.456Z,5.86
2023-03-06T08:05:01.778Z,5.89
2023-03-06T08:08:25.606Z,5.81
2023-03-06T08:11:47.447Z,5.72
2023-03-06T08:15:13.329Z,5.98
2023-03-06T08:18:35.386Z,6.29
2023-03-06T08:21:59.147Z,6.55
2023-03-06T08:25:24.680Z,6.79
2023-03-06T08:28:47.256Z,6.95
2023-03-06T08:32:11.916Z,7.05
2023-03-06T08:35:33.555Z,6.77
2023-03-06T08:39:01.044Z,6.50
2023-03-06T08:42:24.972Z,6.37
2023-03-06T08:45:54.628Z,6.26
2023-03-06T08:49:20.849Z,6.21
2023-03-06T08:52:42.558Z,6.29
2023-03-06T08:56:09.453Z,6.20
2023-03-06T08:59:31.147Z,6.14
2023-03-06T09:02:55.224Z,6.29
2023-03-06T09:06:18.188Z,6.30
2023-03-06T09:09:42.723Z,6.54
2023-03-06T09:13:04.307Z,6.41
2023-03-06T09:16:28.249Z,6.54
2023-03-06T09:19:51.041Z,6.88
2023-03-06T09:23:12.638Z,7.07
2023-03-06T09:26:45.692Z,7.43
2023-03-06T09:30:11.733Z,7.37
2023-03-06T09:33:35.574Z,7.64
2023-03-06T09:37:01.547Z,8.07
2023-03-06T09:40:40.996Z,8.70
2023-03-06T09:44:08.762Z,9.53
2023-03-06T09:47:55.035Z,10.19
2023-03-06T09:51:19.942Z,9.83
2023-03-06T09:54:46.198Z,9.99
2023-03-06T09:58:27.938Z,9.81
2023-03-06T10:02:13.243Z,9.43
2023-03-06T10:05:55.243Z,9.04
2023-03-06T10:09:24.982Z,8.53
2023-03-06T10:12:55.868Z,9.75
2023-03-06T10:16:42.971Z,10.25
2023-03-06T10:20:26.231Z,10.33
2023-03-06T10:23:57.219Z,10.31
2023-03-06T10:27:34.064Z,10.19
2023-03-06T10:31:22.725Z,9.53
2023-03-06T10:34:45.568Z,8.95
2023-03-06T10:38:24.478Z,8.44
2023-03-06T10:41:47.208Z,8.14
2023-03-06T10:45:15.118Z,8.22
2023-03-06T10:48:42.275Z,8.07
2023-03-06T10:52:07.178Z,7.88
2023-03-06T10:55:31.514Z,8.01
2023-03-06T10:59:11.372Z,7.92
2023-03-06T11:02:37.282Z,8.01
2023-03-06T11:05:58.871Z,7.99
2023-03-06T11:09:25.674Z,7.91
2023-03-06T11:13:03.587Z,8.49
2023-03-06T11:16:32.553Z,9.53
2023-03-06T11:20:16.497Z,10.05
2023-03-06T11:23:47.366Z,10.50
2023-03-06T11:27:34.687Z,10.84
2023-03-06T11:31:15.388Z,10.80
2023-03-06T11:34:37.021Z,10.61
2023-03-06T11:38:13.169Z,10.53
2023-03-06T11:41:58.379Z,10.33
2023-03-06T11:45:38.196Z,10.28
2023-03-06T11:49:33.242Z,10.48
2023-03-06T11:52:59.950Z,10.35
2023-03-06T11:56:31.708Z,10.41
2023-03-06T12:00:17.174Z,9.95
2023-03-06T12:04:00.121Z,9.78
2023-03-06T12:07:25.748Z,10.06
2023-03-06T12:10:55.084Z,10.29
2023-03-06T12:14:31.798Z,10.53
2023-03-06T12:17:59.773Z,10.25
2023-03-06T12:21:31.053Z,10.41
2023-03-06T12:25:22.777Z,10.45
2023-03-06T12:29:21.957Z,10.36
2023-03-06T12:32:54.823Z,10.32
2023-03-06T12:36:34.717Z,10.57
2023-03-06T12:40:34.942Z,10.83
2023-03-06T12:44:08.380Z,10.77
2023-03-06T12:47:36.692Z,10.36
2023-03-06T12:50:59.160Z,9.95
2023-03-06T12:54:31.062Z,9.84
2023-03-06T12:57:53.964Z,9.56
2023-03-06T13:01:39.840Z,9.42
2023-03-06T13:05:32.101Z,9.20
2023-03-06T13:09:08.232Z,9.37
2023-03-06T13:12:49.871Z,9.66
2023-03-06T13:16:13.226Z,9.87
2023-03-06T13:19:37.670Z,9.75
2023-03-06T13:23:02.270Z,9.83
2023-03-06T13:26:26.870Z,10.06
2023-03-06T13:29:52.492Z,10.06
2023-03-06T13:33:31.479Z,10.15
2023-03-06T13:36:53.106Z,10.39
2023-03-06T13:40:15.432Z,10.57
2023-03-06T13:43:43.867Z,10.55
2023-03-06T13:47:25.123Z,10.25
2023-03-06T13:50:47.790Z,10.04
2023-03-06T13:54:45.455Z,9.69
2023-03-06T13:58:37.869Z,9.54
2023-03-06T14:01:59.400Z,9.42
2023-03-06T14:05:24.283Z,9.64
2023-03-06T14:08:45.927Z,9.93
2023-03-06T14:12:26.569Z,10.25
2023-03-06T14:15:51.229Z,10.70
2023-03-06T14:19:17.480Z,10.59
2023-03-06T14:22:41.191Z,10.67
2023-03-06T14:26:43.907Z,10.79
2023-03-06T14:30:11.730Z,10.79
2023-03-06T14:33:44.973Z,10.88
2023-03-06T14:37:21.990Z,11.01
2023-03-06T14:40:49.609Z,11.04
2023-03-06T14:44:22.957Z,10.90
2023-03-06T14:47:51.718Z,10.69
2023-03-06T14:51:21.066Z,10.70
2023-03-06T14:54:44.861Z,10.59
2023-03-06T14:58:19.999Z,10.60
2023-03-06T15:01:46.174Z,10.43
2023-03-06T15:05:25.577Z,10.43
2023-03-06T15:08:50.579Z,10.41
2023-03-06T15:12:21.345Z,10.42
2023-03-06T15:15:42.992Z,10.48
2023-03-06T15:19:18.917Z,10.56
2023-03-06T15:22:41.690Z,10.59
2023-03-06T15:26:23.727Z,10.41
2023-03-06T15:29:46.153Z,10.36
2023-03-06T15:33:19.300Z,9.97
2023-03-06T15:36:57.749Z,10.02
2023-03-06T15:40:23.722Z,10.66
2023-03-06T15:43:45.422Z,10.25
2023-03-06T15:47:11.443Z,9.61
2023-03-06T15:50:35.492Z,9.16
2023-03-06T15:54:09.924Z,8.81
2023-03-06T15:57:33.437Z,8.63
2023-03-06T16:00:57.484Z,8.64
2023-03-06T16:04:19.961Z,8.74
2023-03-06T16:07:41.609Z,8.64
2023-03-06T16:11:05.882Z,8.44
2023-03-06T16:14:27.846Z,8.28
2023-03-06T16:17:51.907Z,8.16
2023-03-06T16:21:15.967Z,8.16
2023-03-06T16:24:37.635Z,8.05
2023-03-06T16:27:59.597Z,7.99
2023-03-06T16:31:23.863Z,7.92
2023-03-06T16:34:45.447Z,7.77
2023-03-06T16:38:07.412Z,7.65
2023-03-06T16:41:29.000Z,7.67
2023-03-06T16:44:50.701Z,7.58
2023-03-06T16:48:16.794Z,7.48
2023-03-06T16:51:40.325Z,7.50
2023-03-06T16:55:04.420Z,7.43
2023-03-06T16:58:28.694Z,7.37
2023-03-06T17:01:52.547Z,7.31
2023-03-06T17:05:14.603Z,7.22
2023-03-06T17:08:38.599Z,7.30
2023-03-06T17:12:00.252Z,7.37
2023-03-06T17:15:21.944Z,7.27
2023-03-06T17:18:46.877Z,7.23
2023-03-06T17:22:12.928Z,7.16
2023-03-06T17:25:38.443Z,7.06
2023-03-06T17:29:07.026Z,7.05
2023-03-06T17:32:29.542Z,6.95
2023-03-06T17:35:57.703Z,6.88
2023-03-06T17:39:19.806Z,6.84
2023-03-06T17:42:43.727Z,6.82
2023-03-06T17:46:18.938Z,6.81
2023-03-06T17:49:43.075Z,6.85
2023-03-06T17:53:07.050Z,7.00
2023-03-06T17:56:28.702Z,6.95
2023-03-06T17:59:53.354Z,6.93
2023-03-06T18:03:14.966Z,6.91
2023-03-06T18:06:39.275Z,6.88
2023-03-06T18:10:00.830Z,6.88
2023-03-06T18:13:22.399Z,6.88
2023-03-06T18:16:46.701Z,6.75
2023-03-06T18:20:11.596Z,6.64
2023-03-06T18:23:33.397Z,6.77
2023-03-06T18:26:55.005Z,6.68
2023-03-06T18:30:16.929Z,6.75
2023-03-06T18:33:39.074Z,6.72
2023-03-06T18:37:00.616Z,6.77
2023-03-06T18:40:24.763Z,7.22
2023-03-06T18:43:51.798Z,7.65
2023-03-06T18:47:14.792Z,7.88
2023-03-06T18:50:36.336Z,8.05
2023-03-06T18:54:02.248Z,8.10
2023-03-06T18:57:23.880Z,8.29
2023-03-06T19:00:51.391Z,7.95
2023-03-06T19:04:13.073Z,7.54
2023-03-06T19:07:37.355Z,7.28
2023-03-06T19:11:03.578Z,7.10
2023-03-06T19:14:29.198Z,6.96
2023-03-06T19:17:51.479Z,6.96
2023-03-06T19:21:18.294Z,6.81
2023-03-06T19:24:42.174Z,6.81
2023-03-06T19:28:06.646Z,6.68
2023-03-06T19:31:28.856Z,6.51
2023-03-06T19:34:53.567Z,6.44
2023-03-06T19:38:15.634Z,6.52
2023-03-06T19:41:40.046Z,6.44
2023-03-06T19:45:04.546Z,6.48
2023-03-06T19:48:26.234Z,6.38
2023-03-06T19:51:48.141Z,6.34
2023-03-06T19:55:10.503Z,6.37
2023-03-06T19:58:34.499Z,6.37
2023-03-06T20:01:56.241Z,6.34
2023-03-06T20:05:18.032Z,6.20
2023-03-06T20:08:39.762Z,6.20
2023-03-06T20:12:01.593Z,6.11
2023-03-06T20:15:27.998Z,6.11
2023-03-06T20:18:49.634Z,6.10
2023-03-06T20:22:13.866Z,6.10
2023-03-06T20:25:36.479Z,6.14
2023-03-06T20:28:59.273Z,6.98
2023-03-06T20:32:20.978Z,7.53
2023-03-06T20:35:44.000Z,8.13
2023-03-06T20:39:09.024Z,8.36
2023-03-06T20:42:32.937Z,8.33
2023-03-06T20:46:00.027Z,8.19
2023-03-06T20:49:26.771Z,8.05
2023-03-06T20:52:48.908Z,7.89
2023-03-06T20:56:14.790Z,7.48
2023-03-06T20:59:36.341Z,7.05
2023-03-06T21:02:58.025Z,6.82
2023-03-06T21:06:23.338Z,6.57
2023-03-06T21:09:45.142Z,6.34
2023-03-06T21:13:06.703Z,6.42
2023-03-06T21:16:30.208Z,6.24
2023-03-06T21:19:52.818Z,6.13
2023-03-06T21:23:15.032Z,6.16
2023-03-06T21:26:39.478Z,6.64
2023-03-06T21:30:01.106Z,6.99
2023-03-06T21:33:24.944Z,7.26
2023-03-06T21:36:47.304Z,7.47
2023-03-06T21:40:12.647Z,7.64
2023-03-06T21:43:36.492Z,7.61
2023-03-06T21:46:58.113Z,7.63
2023-03-06T21:50:22.172Z,7.65
2023-03-06T21:53:45.167Z,7.47
2023-03-06T21:57:09.516Z,7.24
2023-03-06T22:00:33.150Z,6.93
2023-03-06T22:03:55.179Z,6.65
2023-03-06T22:07:16.944Z,6.33
2023-03-06T22:10:39.240Z,6.17
2023-03-06T22:14:03.114Z,6.23
2023-03-06T22:17:30.486Z,6.58
2023-03-06T22:20:55.034Z,6.89
2023-03-06T22:24:16.613Z,7.19
2023-03-06T22:27:38.425Z,7.20
2023-03-06T22:31:08.730Z,6.96
2023-03-06T22:34:32.652Z,6.67
2023-03-06T22:37:57.068Z,6.47
2023-03-06T22:41:20.103Z,6.30
2023-03-06T22:44:41.713Z,6.11
2023-03-06T22:48:11.149Z,6.05
2023-03-06T22:51:37.503Z,6.11
2023-03-06T22:55:02.558Z,6.06
2023-03-06T22:58:26.610Z,6.05
2023-03-06T23:01:48.279Z,6.03
2023-03-06T23:05:11.305Z,6.06
2023-03-06T23:08:32.870Z,5.93
2023-03-06T23:11:54.465Z,5.62
2023-03-06T23:15:16.068Z,5.52
2023-03-06T23:18:39.159Z,5.68
2023-03-06T23:22:00.696Z,5.58
2023-03-06T23:25:22.449Z,5.54
2023-03-06T23:28:44.017Z,5.44
2023-03-06T23:32:08.440Z,5.38
2023-03-06T23:35:30.054Z,5.35
2023-03-06T23:38:52.325Z,5.50
2023-03-06T23:42:13.944Z,5.43
2023-03-06T23:45:35.647Z,5.63
2023-03-06T23:48:57.204Z,5.66
2023-03-06T23:52:18.812Z,5.71
2023-03-06T23:55:42.023Z,5.55
2023-03-06T23:59:03.744Z,5.38
